Time;durP1;ratioP1;P1;durP2;ratioP2;P2;SDS_P1;SDS_P2;PMS_P1;PMS_P2;Temp;Humidity;BMP_temperature;BMP_pressure;BME280_temperature;BME280_humidity;BME280_pressure;Samples;Min_cycle;Max_cycle;Signal;HPM_P1;HPM_P2
2022/01/18 00:00:28;;;;;;;15.85;11.20;;;6.90;99.90;;;;;;5016142;28;20667;-69
2022/01/18 00:02:55;;;;;;;14.07;10.20;;;7.00;99.90;;;;;;5016038;28;20647;-69
2022/01/18 00:05:22;;;;;;;16.35;10.77;;;7.00;99.90;;;;;;5016411;28;20201;-69
2022/01/18 00:07:49;;;;;;;21.48;12.35;;;6.90;99.90;;;;;;5016462;28;20745;-69
2022/01/18 00:10:16;;;;;;;15.00;11.15;;;6.80;99.90;;;;;;5016014;28;20303;-69
2022/01/18 00:12:56;;;;;;;20.02;12.05;;;6.90;99.90;;;;;;5016104;28;20231;-69
2022/01/18 00:15:37;;;;;;;18.42;11.93;;;6.90;99.90;;;;;;5016314;28;20239;-69
2022/01/18 00:18:10;;;;;;;15.07;11.80;;;6.90;99.90;;;;;;5016309;28;20209;-69
2022/01/18 00:20:51;;;;;;;19.63;12.25;;;7.00;99.90;;;;;;5015814;28;20201;-69
2022/01/18 00:23:19;;;;;;;18.67;12.60;;;6.80;99.90;;;;;;5015720;28;20225;-69
2022/01/18 00:25:49;;;;;;;18.95;12.18;;;6.80;99.90;;;;;;5016219;28;20211;-70
2022/01/18 00:28:17;;;;;;;18.17;11.23;;;6.80;99.90;;;;;;5016107;28;20197;-69
2022/01/18 00:33:54;;;;;;;19.70;12.38;;;6.60;99.90;;;;;;4998651;28;20217;-69
2022/01/18 00:36:27;;;;;;;24.20;14.65;;;6.60;99.90;;;;;;5015863;28;20189;-70
2022/01/18 00:38:54;;;;;;;19.00;13.15;;;6.40;99.90;;;;;;5016250;28;20315;-69
2022/01/18 00:41:23;;;;;;;18.20;12.85;;;6.20;99.90;;;;;;5015385;28;20291;-70
2022/01/18 00:43:51;;;;;;;21.55;13.05;;;6.40;99.90;;;;;;5016049;28;20316;-69
2022/01/18 00:46:19;;;;;;;18.00;12.88;;;6.40;99.90;;;;;;5015065;28;20213;-69
2022/01/18 00:48:47;;;;;;;20.27;14.13;;;6.60;99.90;;;;;;5015111;28;20205;-70
2022/01/18 00:51:15;;;;;;;21.35;14.82;;;6.50;99.90;;;;;;5015296;28;20291;-69
2022/01/18 00:53:44;;;;;;;17.90;12.07;;;6.30;99.90;;;;;;5015767;28;20232;-69
2022/01/18 00:56:20;;;;;;;18.50;12.80;;;6.40;99.90;;;;;;5015943;28;20647;-69
2022/01/18 00:58:49;;;;;;;17.60;12.40;;;6.60;99.90;;;;;;5015168;28;20228;-69
2022/01/18 01:01:17;;;;;;;15.82;11.50;;;6.60;99.90;;;;;;5014922;28;20208;-69
2022/01/18 01:03:46;;;;;;;16.25;11.30;;;6.70;99.90;;;;;;5015387;28;20228;-69
2022/01/18 01:06:13;;;;;;;15.35;11.23;;;6.90;99.90;;;;;;5015477;28;20204;-69
2022/01/18 01:08:40;;;;;;;16.48;11.25;;;6.80;99.90;;;;;;5015068;28;20268;-70
2022/01/18 01:11:09;;;;;;;21.33;12.82;;;6.80;99.90;;;;;;5014665;28;20292;-69
2022/01/18 01:13:38;;;;;;;15.05;10.40;;;6.90;99.90;;;;;;5014814;28;20232;-70
2022/01/18 01:16:18;;;;;;;14.85;11.45;;;7.00;99.90;;;;;;5014990;28;20255;-69
2022/01/18 01:19:03;;;;;;;15.02;10.45;;;7.10;99.90;;;;;;5015076;28;20216;-69
2022/01/18 01:33:01;;;;;;;22.38;14.00;;;6.20;99.90;;;;;;5014362;28;20223;-69
2022/01/18 01:35:42;;;;;;;21.48;12.98;;;6.00;99.90;;;;;;5014900;28;20547;-69
2022/01/18 01:43:49;;;;;;;24.45;14.65;;;5.80;99.90;;;;;;5014970;28;20614;-69
2022/01/18 01:46:18;;;;;;;22.58;14.90;;;5.70;99.90;;;;;;5014612;28;20625;-69
2022/01/18 01:48:50;;;;;;;24.45;15.55;;;5.80;99.90;;;;;;5014831;28;20205;-69
2022/01/18 01:51:20;;;;;;;26.70;16.50;;;5.80;99.90;;;;;;5014413;28;20208;-69
2022/01/18 01:53:46;;;;;;;24.05;16.40;;;5.80;99.90;;;;;;5014859;28;20225;-69
2022/01/18 01:56:13;;;;;;;27.08;17.05;;;5.80;99.90;;;;;;5014757;28;20200;-69
2022/01/18 01:58:40;;;;;;;26.85;17.80;;;5.70;99.90;;;;;;5017683;28;20232;-69
2022/01/18 02:01:08;;;;;;;25.88;16.45;;;5.90;99.90;;;;;;5018743;28;20562;-69
2022/01/18 02:03:35;;;;;;;24.92;16.67;;;5.90;99.90;;;;;;5018750;28;20315;-69
2022/01/18 02:06:02;;;;;;;22.90;15.68;;;6.10;99.90;;;;;;5018544;28;20648;-69
2022/01/18 02:08:30;;;;;;;21.73;14.52;;;6.30;99.90;;;;;;5018828;28;20244;-69
2022/01/18 02:10:57;;;;;;;25.05;16.27;;;6.30;99.90;;;;;;5018140;28;20208;-69
2022/01/18 02:13:24;;;;;;;22.40;14.98;;;6.50;99.90;;;;;;5018533;28;20221;-69
2022/01/18 02:16:13;;;;;;;20.30;14.85;;;6.60;99.90;;;;;;5018321;28;20326;-70
2022/01/18 02:24:12;;;;;;;27.70;16.48;;;6.30;99.90;;;;;;5017689;28;20220;-70
2022/01/18 02:26:39;;;;;;;25.80;17.80;;;6.10;99.90;;;;;;5017730;28;20643;-70
2022/01/18 02:29:07;;;;;;;26.80;17.48;;;6.00;99.90;;;;;;5017732;28;20205;-70
2022/01/18 02:31:35;;;;;;;27.10;17.00;;;6.00;99.90;;;;;;5017476;28;20211;-69
2022/01/18 02:34:04;;;;;;;26.77;16.70;;;6.10;99.90;;;;;;5017198;28;20341;-69
2022/01/18 02:36:32;;;;;;;28.95;16.98;;;6.20;99.90;;;;;;5017461;28;20205;-69
2022/01/18 02:38:59;;;;;;;25.13;18.17;;;6.20;99.90;;;;;;5017599;28;20232;-69
2022/01/18 02:41:30;;;;;;;30.33;19.08;;;6.10;99.90;;;;;;5017535;28;20319;-69
2022/01/18 02:43:58;;;;;;;27.85;17.38;;;6.00;99.90;;;;;;5018289;28;20229;-69
2022/01/18 02:46:27;;;;;;;28.05;19.02;;;6.10;99.90;;;;;;5017467;28;20236;-69
2022/01/18 02:48:54;;;;;;;28.13;19.33;;;6.10;99.90;;;;;;5017706;28;20272;-70
2022/01/18 02:51:21;;;;;;;30.70;20.48;;;6.00;99.90;;;;;;5017189;28;20212;-69
2022/01/18 02:54:00;;;;;;;30.80;19.90;;;5.90;99.90;;;;;;5017735;28;20257;-69
2022/01/18 02:56:28;;;;;;;33.42;21.85;;;5.70;99.90;;;;;;5017582;28;20664;-69
2022/01/18 02:59:03;;;;;;;33.00;20.65;;;5.70;99.90;;;;;;5017556;28;20227;-69
2022/01/18 03:04:15;;;;;;;32.67;20.08;;;5.70;99.90;;;;;;5017427;28;20203;-69
2022/01/18 03:06:42;;;;;;;30.33;20.13;;;5.80;99.90;;;;;;5017647;28;20211;-70
2022/01/18 03:09:10;;;;;;;28.88;19.08;;;6.00;99.90;;;;;;5017133;28;20201;-70
2022/01/18 03:11:37;;;;;;;30.73;18.30;;;6.10;99.90;;;;;;5017014;28;20209;-69
2022/01/18 03:14:05;;;;;;;29.88;19.17;;;6.10;99.90;;;;;;5016918;28;20225;-70
2022/01/18 03:16:33;;;;;;;26.98;17.75;;;6.30;99.90;;;;;;5016874;28;20211;-70
2022/01/18 03:18:59;;;;;;;25.50;17.48;;;6.40;99.90;;;;;;5016547;28;20225;-70
2022/01/18 03:21:26;;;;;;;30.35;18.52;;;6.50;99.90;;;;;;5016749;28;20300;-69
2022/01/18 03:24:10;;;;;;;26.98;18.45;;;6.50;99.90;;;;;;5016917;28;20231;-69
2022/01/18 03:28:04;;;;;;;28.55;18.00;;;6.50;99.90;;;;;;5017207;28;20262;-70
2022/01/18 03:29:25;;;;;;;28.15;19.55;;;6.30;99.90;;;;;;5016254;28;20223;-70
2022/01/18 03:31:52;;;;;;;28.58;18.60;;;6.30;99.90;;;;;;5016939;28;20209;-69
2022/01/18 03:34:19;;;;;;;26.08;17.88;;;6.40;99.90;;;;;;5016273;28;20211;-70
2022/01/18 03:36:46;;;;;;;28.38;17.85;;;6.50;99.90;;;;;;5016565;28;20296;-69
2022/01/18 03:39:13;;;;;;;27.98;17.33;;;6.60;99.90;;;;;;5016533;28;20587;-69
2022/01/18 03:41:41;;;;;;;26.52;18.15;;;6.70;99.90;;;;;;5016311;28;20212;-69
2022/01/18 03:44:08;;;;;;;27.27;17.85;;;6.80;99.90;;;;;;5016432;28;20260;-69
2022/01/18 03:46:36;;;;;;;25.88;16.63;;;6.90;99.90;;;;;;5016864;28;20209;-69
2022/01/18 03:49:05;;;;;;;31.95;19.08;;;6.90;99.90;;;;;;5016242;28;20614;-69
2022/01/18 03:51:32;;;;;;;32.30;18.70;;;6.60;99.90;;;;;;5015960;28;20211;-69
2022/01/18 03:53:59;;;;;;;30.65;18.95;;;6.50;99.90;;;;;;5015896;28;20256;-69
2022/01/18 03:56:26;;;;;;;31.80;18.35;;;6.40;99.90;;;;;;5016418;28;20211;-69
2022/01/18 03:58:54;;;;;;;31.08;19.23;;;6.40;99.90;;;;;;5015977;28;20295;-70
2022/01/18 04:01:21;;;;;;;28.90;18.55;;;6.50;99.90;;;;;;5015717;28;20300;-69
2022/01/18 04:03:48;;;;;;;31.80;19.30;;;6.30;99.90;;;;;;5015729;28;20225;-69
2022/01/18 04:06:15;;;;;;;31.48;17.70;;;6.30;99.90;;;;;;5015601;28;20209;-69
2022/01/18 04:08:42;;;;;;;27.27;18.02;;;6.30;99.90;;;;;;5015884;28;20208;-69
2022/01/18 04:11:09;;;;;;;28.30;18.83;;;6.40;99.90;;;;;;5015763;28;20207;-69
2022/01/18 04:13:35;;;;;;;23.27;15.23;;;6.60;99.90;;;;;;5016012;28;20224;-69
2022/01/18 04:16:04;;;;;;;30.52;17.38;;;6.70;99.90;;;;;;5015953;28;20300;-69
2022/01/18 04:18:45;;;;;;;27.73;17.73;;;6.80;99.90;;;;;;5015451;28;20255;-70
2022/01/18 04:27:00;;;;;;;26.60;19.20;;;6.60;99.90;;;;;;5015729;28;20635;-69
2022/01/18 04:29:27;;;;;;;32.45;19.63;;;6.40;99.90;;;;;;5015353;28;20192;-70
2022/01/18 04:31:55;;;;;;;31.77;18.45;;;6.30;99.90;;;;;;5015189;28;20296;-69
2022/01/18 04:34:22;;;;;;;27.30;18.00;;;6.30;99.90;;;;;;5015818;28;20209;-69
2022/01/18 04:36:50;;;;;;;31.77;20.20;;;6.40;99.90;;;;;;5015843;28;20204;-69
2022/01/18 04:39:17;;;;;;;31.23;20.27;;;6.40;99.90;;;;;;5015384;28;20295;-69
2022/01/18 04:41:46;;;;;;;31.05;19.35;;;6.30;99.90;;;;;;5014894;28;20208;-70
2022/01/18 04:49:50;;;;;;;30.42;18.75;;;6.40;99.90;;;;;;5015058;28;20207;-69
2022/01/18 04:52:17;;;;;;;26.08;17.00;;;6.50;99.90;;;;;;5014997;28;20239;-69
2022/01/18 04:54:46;;;;;;;29.85;18.75;;;6.50;99.90;;;;;;5015566;28;20547;-69
2022/01/18 04:59:58;;;;;;;29.55;19.20;;;6.30;99.90;;;;;;5014838;28;20260;-69
2022/01/18 05:02:26;;;;;;;30.25;18.95;;;6.10;99.90;;;;;;5014874;28;20315;-69
2022/01/18 05:04:53;;;;;;;31.70;19.80;;;6.10;99.90;;;;;;5015212;28;20307;-69
2022/01/18 05:07:20;;;;;;;28.23;19.63;;;6.00;99.90;;;;;;5015065;28;20204;-69
2022/01/18 05:09:50;;;;;;;31.63;20.77;;;6.00;99.90;;;;;;5014981;28;20303;-68
2022/01/18 05:12:26;;;;;;;30.92;20.63;;;5.90;99.90;;;;;;5014683;28;20225;-69
2022/01/18 05:14:54;;;;;;;32.17;20.30;;;5.90;99.90;;;;;;5014870;28;20230;-69
2022/01/18 05:17:37;;;;;;;38.90;21.52;;;5.80;99.90;;;;;;5014895;28;20287;-69
2022/01/18 05:23:00;;;;;;;34.63;20.70;;;5.70;99.90;;;;;;5014734;28;20223;-69
2022/01/18 05:25:28;;;;;;;34.88;21.05;;;5.60;99.90;;;;;;5014968;28;20208;-69
2022/01/18 05:27:56;;;;;;;32.03;21.50;;;5.60;99.90;;;;;;5014689;28;20200;-69
2022/01/18 05:30:22;;;;;;;34.45;21.08;;;5.60;99.90;;;;;;5014508;28;20201;-69
2022/01/18 05:32:49;;;;;;;38.53;22.75;;;5.70;99.90;;;;;;5014707;28;20229;-69
2022/01/18 05:35:19;;;;;;;36.13;20.42;;;5.60;99.90;;;;;;5015022;28;20738;-69
2022/01/18 05:37:46;;;;;;;36.55;21.83;;;5.60;99.90;;;;;;5015000;28;20606;-69
2022/01/18 05:40:12;;;;;;;35.15;22.15;;;5.60;99.90;;;;;;5014158;28;20781;-69
2022/01/18 05:42:39;;;;;;;37.10;22.38;;;5.60;99.90;;;;;;5014100;28;20323;-69
2022/01/18 05:45:08;;;;;;;38.10;22.60;;;5.60;99.90;;;;;;5014787;28;20297;-69
2022/01/18 05:47:35;;;;;;;34.90;20.58;;;5.60;99.90;;;;;;5014740;28;20204;-69
2022/01/18 05:50:02;;;;;;;43.47;23.20;;;5.60;99.90;;;;;;5014452;28;20205;-69
2022/01/18 05:52:31;;;;;;;36.00;22.48;;;5.50;99.90;;;;;;5014451;28;20224;-69
2022/01/18 05:54:57;;;;;;;41.33;22.40;;;5.50;99.90;;;;;;5014444;28;20208;-69
2022/01/18 05:57:24;;;;;;;40.28;22.70;;;5.50;99.90;;;;;;5014341;28;20666;-69
2022/01/18 05:59:53;;;;;;;39.28;22.48;;;5.50;99.90;;;;;;5014351;28;20260;-69
2022/01/18 06:02:34;;;;;;;40.53;23.27;;;5.50;99.90;;;;;;5014146;28;20726;-69
2022/01/18 06:07:47;;;;;;;41.67;23.63;;;5.40;99.90;;;;;;5014648;28;20274;-69
2022/01/18 06:10:14;;;;;;;38.22;21.58;;;5.50;99.90;;;;;;5014251;28;20205;-68
2022/01/18 06:12:41;;;;;;;35.45;22.65;;;5.50;99.90;;;;;;5014402;28;20233;-69
2022/01/18 06:15:08;;;;;;;40.92;22.15;;;5.50;99.90;;;;;;5013950;28;20302;-70
2022/01/18 06:17:35;;;;;;;40.80;22.75;;;5.40;99.90;;;;;;5014287;28;20296;-69
2022/01/18 06:20:03;;;;;;;39.97;22.33;;;5.40;99.90;;;;;;5013174;28;20220;-68
2022/01/18 06:22:30;;;;;;;43.20;22.70;;;5.50;99.90;;;;;;5008910;28;20233;-69
2022/01/18 06:24:58;;;;;;;37.75;21.75;;;5.40;99.90;;;;;;5012724;28;20299;-68
2022/01/18 06:27:25;;;;;;;35.63;23.25;;;5.40;99.90;;;;;;5012508;28;20213;-69
2022/01/18 06:29:53;;;;;;;38.60;23.45;;;5.40;99.90;;;;;;5012611;28;20663;-69
2022/01/18 06:32:19;;;;;;;42.50;23.30;;;5.50;99.90;;;;;;5012901;28;20796;-69
2022/01/18 06:34:46;;;;;;;39.60;23.05;;;5.40;99.90;;;;;;5012644;28;20311;-69
2022/01/18 06:37:13;;;;;;;37.13;22.95;;;5.40;99.90;;;;;;5012865;28;20209;-69
2022/01/18 06:39:40;;;;;;;43.58;23.25;;;5.30;99.90;;;;;;5012401;28;20204;-69
2022/01/18 06:42:12;;;;;;;41.08;23.85;;;5.30;99.90;;;;;;5012467;28;20323;-69
2022/01/18 06:44:39;;;;;;;40.90;22.55;;;5.20;99.90;;;;;;5015501;28;20218;-69
2022/01/18 06:47:06;;;;;;;45.72;25.48;;;5.30;99.90;;;;;;5016703;28;20211;-69
2022/01/18 06:49:33;;;;;;;43.25;23.50;;;5.30;99.90;;;;;;5016378;28;20208;-69
2022/01/18 06:52:00;;;;;;;46.30;23.70;;;5.30;99.90;;;;;;5016003;28;20685;-69
2022/01/18 06:54:27;;;;;;;42.38;23.52;;;5.30;99.90;;;;;;5016098;28;20209;-69
2022/01/18 06:56:54;;;;;;;42.55;23.80;;;5.30;99.90;;;;;;5016603;28;20291;-69
2022/01/18 06:59:22;;;;;;;43.67;25.15;;;5.30;99.90;;;;;;5016513;28;20295;-69
2022/01/18 07:01:49;;;;;;;46.90;24.27;;;5.30;99.90;;;;;;5015904;28;20319;-69
2022/01/18 07:04:15;;;;;;;40.25;23.27;;;5.30;99.90;;;;;;5016097;28;20295;-69
2022/01/18 07:06:42;;;;;;;38.70;23.75;;;5.30;99.90;;;;;;5016295;28;20208;-69
2022/01/18 07:09:09;;;;;;;48.88;23.90;;;5.30;99.90;;;;;;5015920;28;20303;-69
2022/01/18 07:11:36;;;;;;;43.95;25.02;;;5.20;99.90;;;;;;5015974;28;20288;-69
2022/01/18 07:14:03;;;;;;;41.20;23.40;;;5.20;99.90;;;;;;5016407;28;20229;-69
2022/01/18 07:16:31;;;;;;;42.80;23.83;;;5.20;99.90;;;;;;5015915;28;20201;-68
2022/01/18 07:18:58;;;;;;;40.33;22.65;;;5.20;99.90;;;;;;5015733;28;20300;-67
2022/01/18 07:21:24;;;;;;;40.33;24.48;;;5.20;99.90;;;;;;5015809;28;20718;-68
2022/01/18 07:23:58;;;;;;;44.85;24.00;;;5.20;99.90;;;;;;5015871;28;20225;-68
2022/01/18 07:26:25;;;;;;;43.95;24.40;;;5.10;99.90;;;;;;5015851;28;20208;-68
2022/01/18 07:28:52;;;;;;;38.85;22.40;;;5.20;99.90;;;;;;5015824;28;20743;-68
2022/01/18 07:31:19;;;;;;;40.58;21.90;;;5.40;99.90;;;;;;5016397;28;20207;-69
2022/01/18 07:33:47;;;;;;;35.10;21.48;;;5.60;99.90;;;;;;5016884;28;20315;-69
2022/01/18 07:36:14;;;;;;;40.40;22.20;;;5.60;99.90;;;;;;5016887;28;20211;-69
2022/01/18 07:38:41;;;;;;;42.10;21.80;;;5.80;99.90;;;;;;5016661;28;20311;-68
2022/01/18 07:41:08;;;;;;;37.80;22.40;;;5.90;99.90;;;;;;5016376;28;20235;-70
2022/01/18 07:43:37;;;;;;;33.67;21.73;;;6.00;99.90;;;;;;5016867;28;20231;-69
2022/01/18 07:46:04;;;;;;;38.88;22.30;;;6.00;99.90;;;;;;5016425;28;20215;-69
2022/01/18 07:48:31;;;;;;;36.22;21.92;;;6.00;99.90;;;;;;5016750;28;20651;-69
2022/01/18 07:50:59;;;;;;;39.63;23.23;;;5.90;99.90;;;;;;5016329;28;20208;-69
2022/01/18 07:53:27;;;;;;;38.60;23.65;;;5.80;99.90;;;;;;5016612;28;20622;-69
2022/01/18 07:55:54;;;;;;;42.88;24.45;;;5.70;99.90;;;;;;5016219;28;20209;-69
2022/01/18 07:58:21;;;;;;;41.97;23.73;;;5.80;99.90;;;;;;5016456;28;20299;-69
2022/01/18 08:00:48;;;;;;;37.95;23.33;;;5.80;99.90;;;;;;5015844;28;20231;-69
2022/01/18 08:03:15;;;;;;;38.92;24.10;;;5.80;99.90;;;;;;5015980;28;20221;-69
2022/01/18 08:05:42;;;;;;;39.00;23.77;;;5.80;99.90;;;;;;5016030;28;20588;-69
2022/01/18 08:08:10;;;;;;;37.15;23.20;;;5.90;99.90;;;;;;5016236;28;20207;-69
2022/01/18 08:10:37;;;;;;;38.85;21.80;;;6.00;99.90;;;;;;5015748;28;20208;-68
2022/01/18 08:13:05;;;;;;;37.50;22.73;;;6.20;99.90;;;;;;5016324;28;20220;-69
2022/01/18 08:15:38;;;;;;;36.92;22.02;;;6.10;99.90;;;;;;5016635;28;20205;-69
2022/01/18 08:18:06;;;;;;;38.58;21.77;;;6.00;99.90;;;;;;5016160;28;20602;-69
2022/01/18 08:20:33;;;;;;;41.40;22.02;;;5.90;99.90;;;;;;5015929;28;20231;-69
2022/01/18 08:23:00;;;;;;;38.47;22.60;;;5.70;99.90;;;;;;5016018;28;20235;-69
2022/01/18 08:25:29;;;;;;;33.63;20.65;;;5.60;99.90;;;;;;5015775;28;20659;-69
2022/01/18 08:27:56;;;;;;;40.10;22.48;;;5.60;99.90;;;;;;5016052;28;20311;-69
2022/01/18 08:30:23;;;;;;;35.13;21.95;;;5.70;99.90;;;;;;5015493;28;20212;-69
2022/01/18 08:32:54;;;;;;;33.60;21.38;;;5.70;99.90;;;;;;5015935;28;20231;-69
2022/01/18 08:35:21;;;;;;;30.80;20.70;;;5.60;99.90;;;;;;5015758;28;20208;-69
2022/01/18 08:37:48;;;;;;;38.45;22.25;;;5.70;99.90;;;;;;5015829;28;20291;-69
2022/01/18 08:40:15;;;;;;;32.35;20.05;;;5.80;99.90;;;;;;5015511;28;20578;-69
2022/01/18 08:42:44;;;;;;;35.08;22.00;;;5.90;99.90;;;;;;5015446;28;20229;-69
2022/01/18 08:45:11;;;;;;;39.65;21.85;;;6.00;99.90;;;;;;5015485;28;20211;-69
2022/01/18 08:47:38;;;;;;;34.75;21.70;;;6.10;99.90;;;;;;5015461;28;20204;-69
2022/01/18 08:50:07;;;;;;;36.17;22.88;;;6.00;99.90;;;;;;5015177;28;20572;-68
2022/01/18 08:52:33;;;;;;;33.67;21.08;;;6.00;99.90;;;;;;5015151;28;20227;-69
2022/01/18 08:55:00;;;;;;;33.80;20.88;;;6.10;99.90;;;;;;5015232;28;20231;-69
2022/01/18 08:57:27;;;;;;;32.33;20.48;;;6.10;99.90;;;;;;5015153;28;20205;-69
2022/01/18 08:59:55;;;;;;;36.42;20.77;;;6.20;99.90;;;;;;5015368;28;20232;-68
2022/01/18 09:02:22;;;;;;;33.25;20.35;;;6.30;99.90;;;;;;5015217;28;20627;-69
2022/01/18 09:04:50;;;;;;;34.67;20.92;;;6.30;99.90;;;;;;5015749;28;20312;-69
2022/01/18 09:07:19;;;;;;;35.20;21.77;;;6.40;99.90;;;;;;5015079;28;20204;-69
2022/01/18 09:09:49;;;;;;;33.00;20.85;;;6.60;99.90;;;;;;5015300;28;20204;-68
2022/01/18 09:12:17;;;;;;;32.45;20.63;;;6.70;99.90;;;;;;5014864;28;20737;-69
2022/01/18 09:14:44;;;;;;;32.08;19.70;;;7.00;99.90;;;;;;5015050;28;20208;-69
2022/01/18 09:17:12;;;;;;;31.65;20.00;;;7.20;99.90;;;;;;5015054;28;20651;-69
2022/01/18 09:19:39;;;;;;;31.15;20.50;;;7.40;99.90;;;;;;5015164;28;20209;-69
2022/01/18 09:22:06;;;;;;;29.98;19.92;;;7.70;99.90;;;;;;5015086;28;20256;-69
2022/01/18 09:24:33;;;;;;;35.35;19.67;;;7.80;99.90;;;;;;5014884;28;20213;-69
2022/01/18 09:27:00;;;;;;;29.90;19.27;;;7.90;99.90;;;;;;5014768;28;20208;-69
2022/01/18 09:29:27;;;;;;;27.70;19.15;;;8.00;99.90;;;;;;5015006;28;20208;-69
2022/01/18 09:31:54;;;;;;;29.23;20.65;;;7.90;99.90;;;;;;5015076;28;20201;-69
2022/01/18 09:34:22;;;;;;;33.30;19.65;;;8.00;99.90;;;;;;5015406;28;20205;-69
2022/01/18 09:36:49;;;;;;;29.58;19.60;;;8.00;99.90;;;;;;5015152;28;20212;-69
2022/01/18 09:39:16;;;;;;;31.00;20.55;;;7.70;99.90;;;;;;5014837;28;20219;-69
2022/01/18 09:41:49;;;;;;;30.48;18.05;;;7.40;99.90;;;;;;5014446;28;20315;-69
2022/01/18 09:44:15;;;;;;;25.50;16.92;;;7.30;99.90;;;;;;5015584;28;20193;-69
2022/01/18 09:46:43;;;;;;;30.02;19.00;;;7.30;99.90;;;;;;5014913;28;20648;-69
2022/01/18 09:49:09;;;;;;;29.17;17.67;;;7.30;99.90;;;;;;5015114;28;20205;-69
2022/01/18 09:51:38;;;;;;;24.60;16.05;;;7.30;99.90;;;;;;5014331;28;20200;-68
2022/01/18 09:54:04;;;;;;;23.92;15.30;;;7.20;99.90;;;;;;5014526;28;20229;-69
2022/01/18 09:56:31;;;;;;;27.05;16.92;;;7.00;99.90;;;;;;5013890;28;20205;-69
2022/01/18 09:58:58;;;;;;;28.25;16.88;;;6.80;99.90;;;;;;5014350;28;20669;-69
2022/01/18 10:01:25;;;;;;;26.20;16.52;;;6.50;99.90;;;;;;5014086;28;20221;-68
2022/01/18 10:03:52;;;;;;;28.60;16.52;;;6.20;99.90;;;;;;5014634;28;20243;-68
2022/01/18 10:06:21;;;;;;;24.35;15.65;;;6.30;99.90;;;;;;5014350;28;20210;-69
2022/01/18 10:08:50;;;;;;;25.33;16.80;;;6.20;99.90;;;;;;5014308;28;20223;-68
2022/01/18 10:11:20;;;;;;;28.17;16.13;;;6.00;99.90;;;;;;5014179;28;20647;-68
2022/01/18 10:13:49;;;;;;;26.60;16.90;;;5.90;99.90;;;;;;5014627;28;20224;-68
2022/01/18 10:16:19;;;;;;;27.75;16.92;;;5.80;99.90;;;;;;5014758;28;20679;-68
2022/01/18 10:18:48;;;;;;;28.67;16.48;;;5.90;99.90;;;;;;5016127;28;20213;-69
2022/01/18 10:21:24;;;;;;;25.30;15.55;;;6.10;99.90;;;;;;5018029;28;20231;-69
2022/01/18 10:23:54;;;;;;;27.48;16.77;;;6.30;99.90;;;;;;5018100;28;20717;-68
2022/01/18 10:26:24;;;;;;;24.75;16.15;;;6.60;99.90;;;;;;5018501;28;20259;-69
2022/01/18 10:29:01;;;;;;;24.27;15.60;;;6.80;99.90;;;;;;5018129;28;20214;-69
2022/01/18 10:31:35;;;;;;;27.77;15.82;;;6.50;99.90;;;;;;5017688;28;20207;-68
2022/01/18 10:34:22;;;;;;;25.05;14.35;;;6.40;99.90;;;;;;5018000;28;20228;-68
2022/01/18 10:36:54;;;;;;;21.50;13.30;;;6.50;99.90;;;;;;5017749;28;20280;-68
2022/01/18 10:39:24;;;;;;;21.55;14.57;;;6.80;99.90;;;;;;5017986;28;20730;-68
2022/01/18 10:41:51;;;;;;;20.95;13.50;;;6.90;99.90;;;;;;5017140;28;20556;-68
2022/01/18 10:44:20;;;;;;;23.10;14.82;;;7.10;99.90;;;;;;5017926;28;20215;-68
2022/01/18 10:46:49;;;;;;;24.70;16.63;;;7.20;99.90;;;;;;5017697;28;20299;-68
2022/01/18 10:49:31;;;;;;;23.67;14.60;;;7.10;99.90;;;;;;5018005;28;20209;-68
2022/01/18 10:52:00;;;;;;;22.33;15.45;;;7.20;99.90;;;;;;5017206;28;20205;-68
2022/01/18 10:54:41;;;;;;;21.65;14.20;;;7.50;99.90;;;;;;5017153;28;20296;-68
2022/01/18 10:57:08;;;;;;;20.58;14.23;;;7.70;99.90;;;;;;5017521;28;20209;-68
2022/01/18 10:59:38;;;;;;;24.20;14.13;;;7.80;99.90;;;;;;5017174;28;20227;-68
2022/01/18 11:02:13;;;;;;;20.70;13.60;;;7.80;99.90;;;;;;5017496;28;20221;-68
2022/01/18 11:04:42;;;;;;;17.40;12.88;;;7.80;99.90;;;;;;5017050;28;20208;-69
2022/01/18 11:07:11;;;;;;;22.50;12.45;;;7.90;99.90;;;;;;5017280;28;20208;-69
2022/01/18 11:09:40;;;;;;;14.77;10.85;;;7.90;99.90;;;;;;5017491;28;20255;-69
2022/01/18 11:12:08;;;;;;;16.73;10.60;;;7.60;99.90;;;;;;5017228;28;20685;-69
2022/01/18 11:14:38;;;;;;;14.73;9.88;;;7.40;99.90;;;;;;5017712;28;20295;-69
2022/01/18 11:17:07;;;;;;;13.48;9.27;;;7.40;99.90;;;;;;5016900;28;20216;-69
2022/01/18 11:19:37;;;;;;;14.55;10.00;;;7.30;99.90;;;;;;5017111;28;20212;-69
2022/01/18 11:22:08;;;;;;;14.63;11.02;;;7.40;99.90;;;;;;5016746;28;20729;-69
2022/01/18 11:24:39;;;;;;;15.43;10.23;;;7.40;99.90;;;;;;5017353;28;20308;-68
2022/01/18 11:27:10;;;;;;;16.25;11.18;;;7.40;99.90;;;;;;5017005;28;20295;-69
2022/01/18 11:29:37;;;;;;;17.70;11.30;;;7.40;99.90;;;;;;5016300;28;20300;-69
2022/01/18 11:32:05;;;;;;;19.60;11.35;;;7.30;99.90;;;;;;5016640;28;20207;-68
2022/01/18 11:34:49;;;;;;;15.98;10.55;;;7.40;99.90;;;;;;5016862;28;20547;-69
2022/01/18 11:37:21;;;;;;;17.77;11.48;;;7.40;99.90;;;;;;5016812;28;20244;-69
2022/01/18 11:39:58;;;;;;;16.27;10.55;;;7.30;99.90;;;;;;5016582;28;20204;-68
2022/01/18 11:42:38;;;;;;;17.05;11.10;;;7.50;99.90;;;;;;5016507;28;20228;-69
2022/01/18 11:45:30;;;;;;;13.20;9.88;;;7.70;99.90;;;;;;5017081;28;20193;-69
2022/01/18 11:48:00;;;;;;;12.90;9.75;;;7.80;99.90;;;;;;5016925;28;20212;-69
2022/01/18 11:50:28;;;;;;;15.05;10.00;;;7.90;99.90;;;;;;5016288;28;20213;-69
2022/01/18 11:53:17;;;;;;;11.50;7.00;;;8.10;99.90;;;;;;5016668;28;20224;-69
2022/01/18 11:55:46;;;;;;;10.57;7.45;;;8.20;99.90;;;;;;5016493;28;20303;-69
2022/01/18 11:58:13;;;;;;;8.68;6.30;;;8.10;99.90;;;;;;5016505;28;20651;-69
2022/01/18 12:00:49;;;;;;;9.15;6.65;;;8.10;99.90;;;;;;5015808;28;20296;-69
2022/01/18 12:03:18;;;;;;;10.52;7.55;;;8.00;99.90;;;;;;5016359;28;20228;-69
2022/01/18 12:05:45;;;;;;;10.27;8.57;;;7.90;99.90;;;;;;5016308;28;20211;-69
2022/01/18 12:08:33;;;;;;;12.30;8.82;;;7.90;99.90;;;;;;5016296;28;20213;-69
2022/01/18 12:11:02;;;;;;;13.98;9.65;;;8.00;99.90;;;;;;5016046;28;20634;-68
2022/01/18 12:13:35;;;;;;;14.40;10.18;;;7.90;99.90;;;;;;5015929;28;20220;-69
2022/01/18 12:16:10;;;;;;;15.75;10.98;;;7.70;99.90;;;;;;5015952;28;20211;-69
2022/01/18 12:18:51;;;;;;;13.38;9.77;;;7.70;99.90;;;;;;5015978;28;20211;-69
2022/01/18 12:21:20;;;;;;;13.85;9.52;;;7.60;99.90;;;;;;5015380;28;20604;-69
2022/01/18 12:23:47;;;;;;;13.88;9.13;;;7.60;99.90;;;;;;5015615;28;20233;-69
2022/01/18 12:26:33;;;;;;;14.68;9.52;;;7.50;99.90;;;;;;5015865;28;20544;-68
2022/01/18 12:35:00;;;;;;;13.38;8.75;;;7.30;99.90;;;;;;5015498;28;20228;-69
2022/01/18 12:37:54;;;;;;;10.25;8.75;;;7.40;99.90;;;;;;5015739;28;20226;-69
2022/01/18 12:40:35;;;;;;;13.52;8.55;;;7.60;99.90;;;;;;5014582;28;20204;-68
2022/01/18 12:45:59;;;;;;;12.90;7.82;;;7.80;99.90;;;;;;5015914;28;20205;-68
2022/01/18 12:48:28;;;;;;;10.77;8.05;;;7.90;99.90;;;;;;5015819;28;20207;-68
2022/01/18 12:50:57;;;;;;;11.43;8.25;;;7.90;99.90;;;;;;5015026;28;20297;-68
2022/01/18 12:53:30;;;;;;;11.80;8.32;;;7.90;99.90;;;;;;5015256;28;20311;-68
2022/01/18 12:55:59;;;;;;;10.73;6.40;;;7.90;99.90;;;;;;5015445;28;20209;-68
2022/01/18 12:58:30;;;;;;;8.52;5.40;;;7.80;99.90;;;;;;5015669;28;20207;-68
2022/01/18 13:00:59;;;;;;;8.02;5.22;;;7.70;99.90;;;;;;5015146;28;20205;-68
2022/01/18 13:03:28;;;;;;;8.88;5.50;;;7.60;99.90;;;;;;5014826;28;20671;-68
2022/01/18 13:05:57;;;;;;;7.47;5.90;;;7.60;99.90;;;;;;5015279;28;20208;-68
2022/01/18 13:08:38;;;;;;;9.32;5.60;;;7.60;99.90;;;;;;5014799;28;20211;-68
2022/01/18 13:11:05;;;;;;;10.02;5.75;;;7.80;99.90;;;;;;5014676;28;20204;-68
2022/01/18 13:13:34;;;;;;;7.93;5.22;;;7.80;99.90;;;;;;5014898;28;20694;-68
2022/01/18 13:27:04;;;;;;;9.95;5.72;;;7.60;99.90;;;;;;5004718;28;20192;-69
2022/01/18 13:29:32;;;;;;;11.85;5.88;;;7.70;99.90;;;;;;5015180;28;20282;-68
2022/01/18 13:32:06;;;;;;;10.98;6.00;;;7.70;99.90;;;;;;5014828;28;20236;-68
2022/01/18 13:34:34;;;;;;;9.50;5.68;;;7.70;99.90;;;;;;5015347;28;20784;-68
2022/01/18 13:37:04;;;;;;;11.35;5.95;;;7.60;99.90;;;;;;5014696;28;20212;-68
2022/01/18 13:39:36;;;;;;;6.97;5.50;;;7.60;99.90;;;;;;5014625;28;20209;-68
2022/01/18 13:42:05;;;;;;;7.25;5.47;;;7.40;99.90;;;;;;5014081;28;20662;-68
2022/01/18 13:44:33;;;;;;;9.20;5.88;;;7.20;99.90;;;;;;5014713;28;20205;-68
2022/01/18 13:47:14;;;;;;;8.63;5.30;;;7.20;99.90;;;;;;5014618;28;20650;-68
2022/01/18 13:49:41;;;;;;;6.45;4.78;;;7.10;99.90;;;;;;5014156;28;20212;-68
2022/01/18 13:52:10;;;;;;;7.60;5.53;;;7.10;99.90;;;;;;5013938;28;20319;-68
2022/01/18 13:54:45;;;;;;;5.65;4.68;;;7.10;99.90;;;;;;5014269;28;20643;-68
2022/01/18 13:57:11;;;;;;;8.90;5.03;;;7.10;99.90;;;;;;5014522;28;20212;-68